sensor_id;sensor_type;location;lat;lon;timestamp;pressure;altitude;pressure_sealevel;temperature;humidity
79686;BME280;69153;47.918;11.428;2023-04-23T00:00:13;94578.72;;;16.38;47.94
79686;BME280;69153;47.918;11.428;2023-04-23T00:02:43;94572.84;;;16.34;48.73
79686;BME280;69153;47.918;11.428;2023-04-23T00:05:09;94572.03;;;16.28;49.17
79686;BME280;69153;47.918;11.428;2023-04-23T00:07:37;94569.03;;;16.20;49.70
79686;BME280;69153;47.918;11.428;2023-04-23T00:10:04;94561.41;;;16.13;48.95
79686;BME280;69153;47.918;11.428;2023-04-23T00:12:32;94564.03;;;16.07;49.10
79686;BME280;69153;47.918;11.428;2023-04-23T00:14:59;94561.09;;;16.05;48.69
79686;BME280;69153;47.918;11.428;2023-04-23T00:17:25;94562.00;;;16.02;49.01
79686;BME280;69153;47.918;11.428;2023-04-23T00:19:50;94557.53;;;15.94;49.42
79686;BME280;69153;47.918;11.428;2023-04-23T00:22:16;94553.56;;;15.89;49.36
79686;BME280;69153;47.918;11.428;2023-04-23T00:24:42;94554.72;;;15.83;49.29
79686;BME280;69153;47.918;11.428;2023-04-23T00:27:08;94554.91;;;15.79;49.76
79686;BME280;69153;47.918;11.428;2023-04-23T00:29:33;94555.63;;;15.80;49.29
79686;BME280;69153;47.918;11.428;2023-04-23T00:32:00;94551.41;;;15.73;49.50
79686;BME280;69153;47.918;11.428;2023-04-23T00:34:26;94547.75;;;15.70;49.76
79686;BME280;69153;47.918;11.428;2023-04-23T00:36:52;94540.13;;;15.63;50.00
79686;BME280;69153;47.918;11.428;2023-04-23T00:39:17;94547.13;;;15.61;50.44
79686;BME280;69153;47.918;11.428;2023-04-23T00:41:43;94542.50;;;15.61;50.22
79686;BME280;69153;47.918;11.428;2023-04-23T00:44:08;94545.56;;;15.54;50.50
79686;BME280;69153;47.918;11.428;2023-04-23T00:46:35;94546.75;;;15.53;50.75
79686;BME280;69153;47.918;11.428;2023-04-23T00:49:01;94541.13;;;15.51;50.45
79686;BME280;69153;47.918;11.428;2023-04-23T00:51:28;94543.53;;;15.49;50.67
79686;BME280;69153;47.918;11.428;2023-04-23T00:53:55;94546.19;;;15.49;50.41
79686;BME280;69153;47.918;11.428;2023-04-23T00:56:22;94538.19;;;15.49;50.42
79686;BME280;69153;47.918;11.428;2023-04-23T00:58:49;94547.94;;;15.52;50.33
79686;BME280;69153;47.918;11.428;2023-04-23T01:01:15;94547.03;;;15.41;50.68
79686;BME280;69153;47.918;11.428;2023-04-23T01:03:45;94540.72;;;15.23;50.85
79686;BME280;69153;47.918;11.428;2023-04-23T01:06:12;94549.44;;;15.24;50.80
79686;BME280;69153;47.918;11.428;2023-04-23T01:08:37;94540.97;;;15.25;51.12
79686;BME280;69153;47.918;11.428;2023-04-23T01:11:04;94545.19;;;15.32;51.02
79686;BME280;69153;47.918;11.428;2023-04-23T01:13:30;94543.81;;;15.36;50.74
79686;BME280;69153;47.918;11.428;2023-04-23T01:15:56;94535.34;;;15.38;50.96
79686;BME280;69153;47.918;11.428;2023-04-23T01:18:22;94537.75;;;15.36;50.74
79686;BME280;69153;47.918;11.428;2023-04-23T01:20:48;94537.94;;;15.32;51.01
79686;BME280;69153;47.918;11.428;2023-04-23T01:23:14;94540.59;;;15.32;51.14
79686;BME280;69153;47.918;11.428;2023-04-23T01:25:40;94528.72;;;15.33;51.02
79686;BME280;69153;47.918;11.428;2023-04-23T01:28:06;94539.97;;;15.23;51.44
79686;BME280;69153;47.918;11.428;2023-04-23T01:30:32;94533.91;;;15.22;51.36
79686;BME280;69153;47.918;11.428;2023-04-23T01:32:58;94533.72;;;15.26;51.16
79686;BME280;69153;47.918;11.428;2023-04-23T01:35:24;94537.59;;;15.25;51.33
79686;BME280;69153;47.918;11.428;2023-04-23T01:37:50;94536.56;;;15.22;51.32
79686;BME280;69153;47.918;11.428;2023-04-23T01:40:17;94532.41;;;15.21;51.46
79686;BME280;69153;47.918;11.428;2023-04-23T01:42:42;94538.31;;;15.25;51.64
79686;BME280;69153;47.918;11.428;2023-04-23T01:45:08;94537.13;;;15.26;51.51
79686;BME280;69153;47.918;11.428;2023-04-23T01:47:35;94536.50;;;15.17;51.61
79686;BME280;69153;47.918;11.428;2023-04-23T01:50:00;94536.84;;;14.95;52.12
79686;BME280;69153;47.918;11.428;2023-04-23T01:52:26;94535.94;;;14.83;52.63
79686;BME280;69153;47.918;11.428;2023-04-23T01:54:51;94527.31;;;14.88;52.29
79686;BME280;69153;47.918;11.428;2023-04-23T01:57:17;94529.88;;;14.97;52.17
79686;BME280;69153;47.918;11.428;2023-04-23T01:59:51;94533.84;;;15.02;52.01
79686;BME280;69153;47.918;11.428;2023-04-23T02:02:16;94516.63;;;15.03;51.82
79686;BME280;69153;47.918;11.428;2023-04-23T02:04:43;94520.50;;;15.02;52.28
79686;BME280;69153;47.918;11.428;2023-04-23T02:07:10;94522.69;;;15.04;52.26
79686;BME280;69153;47.918;11.428;2023-04-23T02:09:36;94523.22;;;15.08;52.04
79686;BME280;69153;47.918;11.428;2023-04-23T02:12:01;94528.50;;;15.02;51.88
79686;BME280;69153;47.918;11.428;2023-04-23T02:14:27;94521.69;;;15.01;51.97
79686;BME280;69153;47.918;11.428;2023-04-23T02:16:53;94516.25;;;14.95;52.16
79686;BME280;69153;47.918;11.428;2023-04-23T02:19:18;94521.97;;;14.88;52.26
79686;BME280;69153;47.918;11.428;2023-04-23T02:21:44;94517.66;;;14.91;52.17
79686;BME280;69153;47.918;11.428;2023-04-23T02:24:09;94518.84;;;14.90;51.67
79686;BME280;69153;47.918;11.428;2023-04-23T02:26:35;94518.00;;;14.84;51.96
79686;BME280;69153;47.918;11.428;2023-04-23T02:29:00;94528.84;;;14.80;52.29
79686;BME280;69153;47.918;11.428;2023-04-23T02:31:26;94527.94;;;14.83;52.16
79686;BME280;69153;47.918;11.428;2023-04-23T02:33:51;94530.16;;;14.85;52.07
79686;BME280;69153;47.918;11.428;2023-04-23T02:36:17;94529.50;;;14.90;52.11
79686;BME280;69153;47.918;11.428;2023-04-23T02:38:42;94530.69;;;14.89;51.82
79686;BME280;69153;47.918;11.428;2023-04-23T02:41:10;94527.31;;;14.88;52.08
79686;BME280;69153;47.918;11.428;2023-04-23T02:43:36;94527.31;;;14.88;52.33
79686;BME280;69153;47.918;11.428;2023-04-23T02:46:01;94529.22;;;14.88;52.45
79686;BME280;69153;47.918;11.428;2023-04-23T02:48:38;94531.63;;;14.86;52.34
79686;BME280;69153;47.918;11.428;2023-04-23T02:51:05;94539.16;;;14.87;52.16
79686;BME280;69153;47.918;11.428;2023-04-23T02:53:31;94531.16;;;14.87;52.46
79686;BME280;69153;47.918;11.428;2023-04-23T02:55:57;94540.63;;;14.88;52.51
79686;BME280;69153;47.918;11.428;2023-04-23T02:58:22;94539.63;;;14.86;52.75
79686;BME280;69153;47.918;11.428;2023-04-23T03:00:48;94542.75;;;14.84;52.64
79686;BME280;69153;47.918;11.428;2023-04-23T03:03:13;94544.94;;;14.86;52.68
79686;BME280;69153;47.918;11.428;2023-04-23T03:05:39;94551.13;;;14.77;52.56
79686;BME280;69153;47.918;11.428;2023-04-23T03:08:04;94549.34;;;14.74;52.72
79686;BME280;69153;47.918;11.428;2023-04-23T03:10:30;94554.81;;;14.80;52.57
79686;BME280;69153;47.918;11.428;2023-04-23T03:12:55;94548.25;;;14.81;52.65
79686;BME280;69153;47.918;11.428;2023-04-23T03:15:21;94555.25;;;14.78;52.93
79686;BME280;69153;47.918;11.428;2023-04-23T03:17:47;94554.53;;;14.78;53.01
79686;BME280;69153;47.918;11.428;2023-04-23T03:20:12;94553.75;;;14.62;53.37
79686;BME280;69153;47.918;11.428;2023-04-23T03:22:38;94558.44;;;14.68;53.20
79686;BME280;69153;47.918;11.428;2023-04-23T03:25:04;94560.66;;;14.69;53.39
79686;BME280;69153;47.918;11.428;2023-04-23T03:27:30;94555.88;;;14.73;53.35
79686;BME280;69153;47.918;11.428;2023-04-23T03:29:56;94549.72;;;14.82;52.66
79686;BME280;69153;47.918;11.428;2023-04-23T03:32:23;94556.44;;;14.77;53.22
79686;BME280;69153;47.918;11.428;2023-04-23T03:34:48;94553.34;;;14.79;53.55
79686;BME280;69153;47.918;11.428;2023-04-23T03:37:15;94550.47;;;14.82;53.33
79686;BME280;69153;47.918;11.428;2023-04-23T03:39:40;94557.56;;;14.85;53.64
79686;BME280;69153;47.918;11.428;2023-04-23T03:42:06;94551.03;;;14.86;53.46
79686;BME280;69153;47.918;11.428;2023-04-23T03:44:31;94546.72;;;14.89;53.70
79686;BME280;69153;47.918;11.428;2023-04-23T03:46:56;94549.38;;;14.89;53.87
79686;BME280;69153;47.918;11.428;2023-04-23T03:49:23;94552.03;;;14.89;54.04
79686;BME280;69153;47.918;11.428;2023-04-23T03:51:48;94552.66;;;14.84;53.78
79686;BME280;69153;47.918;11.428;2023-04-23T03:54:14;94554.81;;;14.80;53.83
79686;BME280;69153;47.918;11.428;2023-04-23T03:56:39;94555.72;;;14.77;53.73
79686;BME280;69153;47.918;11.428;2023-04-23T03:59:05;94555.16;;;14.73;53.91
79686;BME280;69153;47.918;11.428;2023-04-23T04:01:30;94555.03;;;14.67;54.00
79686;BME280;69153;47.918;11.428;2023-04-23T04:03:57;94558.19;;;14.65;53.81
79686;BME280;69153;47.918;11.428;2023-04-23T04:06:22;94561.59;;;14.66;54.30
79686;BME280;69153;47.918;11.428;2023-04-23T04:08:48;94568.19;;;14.71;54.18
79686;BME280;69153;47.918;11.428;2023-04-23T04:11:13;94570.53;;;14.78;54.39
79686;BME280;69153;47.918;11.428;2023-04-23T04:13:39;94568.47;;;14.73;54.54
79686;BME280;69153;47.918;11.428;2023-04-23T04:16:04;94569.31;;;14.64;54.91
79686;BME280;69153;47.918;11.428;2023-04-23T04:18:30;94572.31;;;14.57;54.95
79686;BME280;69153;47.918;11.428;2023-04-23T04:20:55;94573.44;;;14.65;54.94
79686;BME280;69153;47.918;11.428;2023-04-23T04:23:21;94580.72;;;14.64;54.81
79686;BME280;69153;47.918;11.428;2023-04-23T04:25:46;94580.50;;;14.68;55.12
79686;BME280;69153;47.918;11.428;2023-04-23T04:28:11;94581.53;;;14.71;55.73
79686;BME280;69153;47.918;11.428;2023-04-23T04:30:37;94581.16;;;14.63;55.77
79686;BME280;69153;47.918;11.428;2023-04-23T04:33:03;94588.38;;;14.48;56.88
79686;BME280;69153;47.918;11.428;2023-04-23T04:35:29;94588.03;;;14.55;56.27
79686;BME280;69153;47.918;11.428;2023-04-23T04:37:54;94598.44;;;14.68;56.01
79686;BME280;69153;47.918;11.428;2023-04-23T04:40:20;94596.34;;;14.72;56.10
79686;BME280;69153;47.918;11.428;2023-04-23T04:42:45;94611.16;;;14.73;55.74
79686;BME280;69153;47.918;11.428;2023-04-23T04:45:11;94612.16;;;14.75;55.68
79686;BME280;69153;47.918;11.428;2023-04-23T04:47:37;94616.59;;;14.78;55.70
79686;BME280;69153;47.918;11.428;2023-04-23T04:50:03;94609.50;;;14.75;55.99
79686;BME280;69153;47.918;11.428;2023-04-23T04:52:30;94619.44;;;14.75;56.33
79686;BME280;69153;47.918;11.428;2023-04-23T04:54:56;94615.94;;;14.83;55.96
79686;BME280;69153;47.918;11.428;2023-04-23T04:57:21;94620.00;;;14.79;56.72
79686;BME280;69153;47.918;11.428;2023-04-23T04:59:48;94621.38;;;14.74;56.67
79686;BME280;69153;47.918;11.428;2023-04-23T05:02:14;94629.47;;;14.80;56.73
79686;BME280;69153;47.918;11.428;2023-04-23T05:04:39;94620.09;;;14.84;56.74
79686;BME280;69153;47.918;11.428;2023-04-23T05:07:05;94633.28;;;14.64;57.44
79686;BME280;69153;47.918;11.428;2023-04-23T05:09:30;94638.78;;;14.37;58.58
79686;BME280;69153;47.918;11.428;2023-04-23T05:11:55;94633.25;;;14.49;58.33
79686;BME280;69153;47.918;11.428;2023-04-23T05:14:22;94641.81;;;14.53;58.25
79686;BME280;69153;47.918;11.428;2023-04-23T05:16:50;94640.34;;;14.52;58.44
79686;BME280;69153;47.918;11.428;2023-04-23T05:19:15;94644.34;;;13.91;59.93
79686;BME280;69153;47.918;11.428;2023-04-23T05:21:41;94648.13;;;13.66;61.34
79686;BME280;69153;47.918;11.428;2023-04-23T05:24:06;94647.19;;;13.87;61.10
79686;BME280;69153;47.918;11.428;2023-04-23T05:26:32;94649.66;;;13.91;60.97
79686;BME280;69153;47.918;11.428;2023-04-23T05:28:57;94644.03;;;14.22;60.64
79686;BME280;69153;47.918;11.428;2023-04-23T05:31:23;94650.88;;;14.47;59.52
79686;BME280;69153;47.918;11.428;2023-04-23T05:33:48;94659.75;;;14.53;59.26
79686;BME280;69153;47.918;11.428;2023-04-23T05:36:14;94663.41;;;14.55;59.32
79686;BME280;69153;47.918;11.428;2023-04-23T05:38:39;94668.94;;;14.52;59.44
79686;BME280;69153;47.918;11.428;2023-04-23T05:41:05;94668.31;;;14.24;60.46
79686;BME280;69153;47.918;11.428;2023-04-23T05:43:30;94670.75;;;13.71;62.73
79686;BME280;69153;47.918;11.428;2023-04-23T05:45:56;94667.31;;;13.88;62.28
79686;BME280;69153;47.918;11.428;2023-04-23T05:48:21;94661.78;;;14.01;62.17
79686;BME280;69153;47.918;11.428;2023-04-23T05:50:46;94673.97;;;13.84;62.86
79686;BME280;69153;47.918;11.428;2023-04-23T05:53:13;94665.19;;;13.92;62.59
79686;BME280;69153;47.918;11.428;2023-04-23T05:55:39;94666.59;;;14.12;62.29
79686;BME280;69153;47.918;11.428;2023-04-23T05:58:05;94674.00;;;14.08;62.45
79686;BME280;69153;47.918;11.428;2023-04-23T06:00:30;94671.59;;;13.77;63.23
79686;BME280;69153;47.918;11.428;2023-04-23T06:02:56;94676.44;;;13.45;63.92
79686;BME280;69153;47.918;11.428;2023-04-23T06:05:22;94674.03;;;13.56;64.12
79686;BME280;69153;47.918;11.428;2023-04-23T06:07:47;94677.22;;;13.88;63.22
79686;BME280;69153;47.918;11.428;2023-04-23T06:10:13;94684.91;;;13.86;62.94
79686;BME280;69153;47.918;11.428;2023-04-23T06:12:38;94684.88;;;13.95;63.45
79686;BME280;69153;47.918;11.428;2023-04-23T06:15:06;94677.47;;;13.99;63.69
79686;BME280;69153;47.918;11.428;2023-04-23T06:17:33;94679.88;;;13.88;64.05
79686;BME280;69153;47.918;11.428;2023-04-23T06:19:58;94685.59;;;13.95;63.56
79686;BME280;69153;47.918;11.428;2023-04-23T06:22:24;94686.22;;;13.90;63.89
79686;BME280;69153;47.918;11.428;2023-04-23T06:24:49;94678.00;;;14.12;63.23
79686;BME280;69153;47.918;11.428;2023-04-23T06:27:15;94680.31;;;14.19;63.01
79686;BME280;69153;47.918;11.428;2023-04-23T06:29:41;94675.00;;;14.19;62.99
79686;BME280;69153;47.918;11.428;2023-04-23T06:32:06;94674.41;;;14.15;63.25
79686;BME280;69153;47.918;11.428;2023-04-23T06:34:32;94674.66;;;14.26;63.45
79686;BME280;69153;47.918;11.428;2023-04-23T06:36:57;94674.94;;;13.95;63.90
79686;BME280;69153;47.918;11.428;2023-04-23T06:39:23;94675.47;;;13.76;64.24
79686;BME280;69153;47.918;11.428;2023-04-23T06:41:49;94673.97;;;13.84;64.36
79686;BME280;69153;47.918;11.428;2023-04-23T06:44:14;94669.75;;;14.01;64.39
79686;BME280;69153;47.918;11.428;2023-04-23T06:46:40;94673.69;;;14.15;63.47
79686;BME280;69153;47.918;11.428;2023-04-23T06:49:05;94673.31;;;13.98;64.20
79686;BME280;69153;47.918;11.428;2023-04-23T06:51:31;94672.13;;;13.99;64.47
79686;BME280;69153;47.918;11.428;2023-04-23T06:53:56;94671.25;;;13.93;64.48
79686;BME280;69153;47.918;11.428;2023-04-23T06:56:23;94674.38;;;13.91;64.37
79686;BME280;69153;47.918;11.428;2023-04-23T06:58:48;94666.91;;;13.72;64.89
79686;BME280;69153;47.918;11.428;2023-04-23T07:01:14;94660.81;;;13.80;64.81
79686;BME280;69153;47.918;11.428;2023-04-23T07:03:39;94668.75;;;13.89;64.52
79686;BME280;69153;47.918;11.428;2023-04-23T07:06:09;94669.28;;;13.70;65.17
79686;BME280;69153;47.918;11.428;2023-04-23T07:08:34;94671.47;;;13.80;65.18
79686;BME280;69153;47.918;11.428;2023-04-23T07:11:00;94666.75;;;14.08;64.36
79686;BME280;69153;47.918;11.428;2023-04-23T07:13:26;94660.78;;;14.22;63.85
79686;BME280;69153;47.918;11.428;2023-04-23T07:15:52;94661.91;;;14.30;63.37
79686;BME280;69153;47.918;11.428;2023-04-23T07:18:17;94659.22;;;14.40;63.11
79686;BME280;69153;47.918;11.428;2023-04-23T07:20:43;94658.72;;;14.50;62.95
79686;BME280;69153;47.918;11.428;2023-04-23T07:23:09;94651.25;;;14.54;62.47
79686;BME280;69153;47.918;11.428;2023-04-23T07:25:35;94659.03;;;14.67;62.16
79686;BME280;69153;47.918;11.428;2023-04-23T07:28:00;94651.59;;;14.71;62.24
79686;BME280;69153;47.918;11.428;2023-04-23T07:30:27;94655.63;;;14.43;61.97
79686;BME280;69153;47.918;11.428;2023-04-23T07:32:53;94663.81;;;14.30;62.80
79686;BME280;69153;47.918;11.428;2023-04-23T07:35:21;94660.72;;;14.31;62.57
79686;BME280;69153;47.918;11.428;2023-04-23T07:37:46;94656.56;;;14.30;62.93
79686;BME280;69153;47.918;11.428;2023-04-23T07:40:12;94656.78;;;14.18;62.88
79686;BME280;69153;47.918;11.428;2023-04-23T07:42:37;94663.09;;;14.29;63.37
79686;BME280;69153;47.918;11.428;2023-04-23T07:45:04;94660.81;;;14.46;62.28
79686;BME280;69153;47.918;11.428;2023-04-23T07:47:30;94651.09;;;14.58;62.35
79686;BME280;69153;47.918;11.428;2023-04-23T07:49:55;94654.84;;;14.75;62.42
79686;BME280;69153;47.918;11.428;2023-04-23T07:52:21;94657.53;;;14.90;61.19
79686;BME280;69153;47.918;11.428;2023-04-23T07:54:47;94644.88;;;14.99;61.25
79686;BME280;69153;47.918;11.428;2023-04-23T07:57:12;94644.31;;;15.10;60.92
79686;BME280;69153;47.918;11.428;2023-04-23T07:59:38;94652.41;;;15.01;61.55
79686;BME280;69153;47.918;11.428;2023-04-23T08:02:04;94644.00;;;14.79;62.27
79686;BME280;69153;47.918;11.428;2023-04-23T08:04:30;94644.94;;;14.90;61.93
79686;BME280;69153;47.918;11.428;2023-04-23T08:06:55;94646.88;;;14.90;62.16
79686;BME280;69153;47.918;11.428;2023-04-23T08:09:20;94644.50;;;14.92;62.56
79686;BME280;69153;47.918;11.428;2023-04-23T08:11:46;94639.38;;;15.18;62.11
79686;BME280;69153;47.918;11.428;2023-04-23T08:14:12;94644.78;;;15.23;61.29
79686;BME280;69153;47.918;11.428;2023-04-23T08:16:38;94642.09;;;14.94;62.19
79686;BME280;69153;47.918;11.428;2023-04-23T08:19:03;94649.47;;;14.99;62.33
79686;BME280;69153;47.918;11.428;2023-04-23T08:21:30;94633.66;;;15.10;61.77
79686;BME280;69153;47.918;11.428;2023-04-23T08:23:56;94639.00;;;14.72;62.60
79686;BME280;69153;47.918;11.428;2023-04-23T08:26:22;94639.97;;;14.98;61.49
79686;BME280;69153;47.918;11.428;2023-04-23T08:28:48;94643.69;;;15.15;60.20
79686;BME280;69153;47.918;11.428;2023-04-23T08:31:14;94644.81;;;15.38;59.97
79686;BME280;69153;47.918;11.428;2023-04-23T08:33:40;94648.66;;;15.37;59.87
79686;BME280;69153;47.918;11.428;2023-04-23T08:36:07;94643.59;;;15.39;60.52
79686;BME280;69153;47.918;11.428;2023-04-23T08:38:33;94633.84;;;15.51;60.52
79686;BME280;69153;47.918;11.428;2023-04-23T08:40:58;94638.56;;;15.56;59.80
79686;BME280;69153;47.918;11.428;2023-04-23T08:43:37;94641.13;;;15.50;59.86
79686;BME280;69153;47.918;11.428;2023-04-23T08:46:11;94637.06;;;15.40;59.69
79686;BME280;69153;47.918;11.428;2023-04-23T08:48:39;94639.91;;;15.51;59.70
79686;BME280;69153;47.918;11.428;2023-04-23T08:51:08;94633.66;;;15.54;59.58
79686;BME280;69153;47.918;11.428;2023-04-23T08:53:36;94635.78;;;15.65;58.98
79686;BME280;69153;47.918;11.428;2023-04-23T08:56:04;94627.88;;;15.70;58.98
79686;BME280;69153;47.918;11.428;2023-04-23T08:58:31;94635.78;;;15.50;59.46
79686;BME280;69153;47.918;11.428;2023-04-23T09:00:57;94634.47;;;15.46;59.26
79686;BME280;69153;47.918;11.428;2023-04-23T09:03:23;94628.03;;;15.37;58.94
79686;BME280;69153;47.918;11.428;2023-04-23T09:05:50;94622.16;;;15.33;58.72
79686;BME280;69153;47.918;11.428;2023-04-23T09:08:19;94619.75;;;15.50;59.62
79686;BME280;69153;47.918;11.428;2023-04-23T09:10:45;94625.66;;;15.25;60.24
79686;BME280;69153;47.918;11.428;2023-04-23T09:13:12;94620.09;;;14.84;61.04
79686;BME280;69153;47.918;11.428;2023-04-23T09:15:39;94618.31;;;14.81;61.55
79686;BME280;69153;47.918;11.428;2023-04-23T09:18:08;94624.19;;;15.24;60.91
79686;BME280;69153;47.918;11.428;2023-04-23T09:20:33;94619.16;;;15.55;58.66
79686;BME280;69153;47.918;11.428;2023-04-23T09:23:05;94611.19;;;15.61;58.45
79686;BME280;69153;47.918;11.428;2023-04-23T09:25:32;94615.56;;;14.76;61.46
79686;BME280;69153;47.918;11.428;2023-04-23T09:27:58;94616.72;;;14.60;62.34
79686;BME280;69153;47.918;11.428;2023-04-23T09:30:25;94617.75;;;14.39;63.53
79686;BME280;69153;47.918;11.428;2023-04-23T09:32:52;94611.41;;;14.60;62.44
79686;BME280;69153;47.918;11.428;2023-04-23T09:35:18;94606.69;;;14.55;62.00
79686;BME280;69153;47.918;11.428;2023-04-23T09:37:47;94606.06;;;14.60;61.87
79686;BME280;69153;47.918;11.428;2023-04-23T09:40:22;94599.66;;;14.81;61.24
79686;BME280;69153;47.918;11.428;2023-04-23T09:42:49;94600.50;;;14.87;60.81
79686;BME280;69153;47.918;11.428;2023-04-23T09:45:17;94593.22;;;14.73;60.37
79686;BME280;69153;47.918;11.428;2023-04-23T09:47:54;94590.16;;;14.51;61.78
79686;BME280;69153;47.918;11.428;2023-04-23T09:50:33;94585.50;;;14.75;61.44
79686;BME280;69153;47.918;11.428;2023-04-23T09:53:00;94590.16;;;15.19;59.82
79686;BME280;69153;47.918;11.428;2023-04-23T09:55:27;94586.47;;;15.31;58.67
79686;BME280;69153;47.918;11.428;2023-04-23T09:57:54;94585.16;;;15.26;58.79
79686;BME280;69153;47.918;11.428;2023-04-23T10:00:20;94577.16;;;15.56;57.40
79686;BME280;69153;47.918;11.428;2023-04-23T10:02:49;94581.16;;;15.81;57.14
79686;BME280;69153;47.918;11.428;2023-04-23T10:05:20;94569.16;;;16.11;56.90
79686;BME280;69153;47.918;11.428;2023-04-23T10:07:47;94570.66;;;16.32;56.35
79686;BME280;69153;47.918;11.428;2023-04-23T10:10:17;94565.63;;;16.60;54.47
79686;BME280;69153;47.918;11.428;2023-04-23T10:12:44;94568.34;;;16.86;54.10
79686;BME280;69153;47.918;11.428;2023-04-23T10:15:11;94565.19;;;17.13;53.55
79686;BME280;69153;47.918;11.428;2023-04-23T10:17:39;94564.16;;;17.37;52.26
79686;BME280;69153;47.918;11.428;2023-04-23T10:20:06;94562.06;;;17.21;52.98
79686;BME280;69153;47.918;11.428;2023-04-23T10:22:34;94551.22;;;17.67;50.79
79686;BME280;69153;47.918;11.428;2023-04-23T10:25:03;94547.81;;;17.66;50.66
79686;BME280;69153;47.918;11.428;2023-04-23T10:27:30;94541.00;;;18.78;48.61
79686;BME280;69153;47.918;11.428;2023-04-23T10:29:59;94544.47;;;19.62;49.32
79686;BME280;69153;47.918;11.428;2023-04-23T10:32:26;94546.19;;;19.71;46.00
79686;BME280;69153;47.918;11.428;2023-04-23T10:34:52;94543.22;;;19.13;46.83
79686;BME280;69153;47.918;11.428;2023-04-23T10:37:18;94542.03;;;19.59;45.68
79686;BME280;69153;47.918;11.428;2023-04-23T10:39:49;94539.75;;;20.65;45.38
79686;BME280;69153;47.918;11.428;2023-04-23T10:42:18;94526.84;;;20.94;44.96
79686;BME280;69153;47.918;11.428;2023-04-23T10:44:45;94525.41;;;21.83;44.01
79686;BME280;69153;47.918;11.428;2023-04-23T10:47:14;94527.13;;;22.48;41.95
79686;BME280;69153;47.918;11.428;2023-04-23T10:49:41;94522.38;;;22.35;41.59
79686;BME280;69153;47.918;11.428;2023-04-23T10:52:09;94508.38;;;22.36;44.29
79686;BME280;69153;47.918;11.428;2023-04-23T10:54:41;94503.72;;;22.93;42.48
79686;BME280;69153;47.918;11.428;2023-04-23T10:57:08;94505.91;;;22.95;41.35
79686;BME280;69153;47.918;11.428;2023-04-23T10:59:38;94496.97;;;23.00;39.78
79686;BME280;69153;47.918;11.428;2023-04-23T11:02:08;94491.69;;;22.38;40.61
79686;BME280;69153;47.918;11.428;2023-04-23T11:04:39;94488.34;;;23.01;41.05
79686;BME280;69153;47.918;11.428;2023-04-23T11:07:10;94470.75;;;23.98;39.25
79686;BME280;69153;47.918;11.428;2023-04-23T11:12:33;94468.66;;;23.20;38.89
79686;BME280;69153;47.918;11.428;2023-04-23T11:15:10;94464.59;;;23.13;36.50
79686;BME280;69153;47.918;11.428;2023-04-23T11:20:12;94459.38;;;23.47;40.32
79686;BME280;69153;47.918;11.428;2023-04-23T11:22:42;94459.09;;;24.50;37.05
79686;BME280;69153;47.918;11.428;2023-04-23T11:25:12;94455.75;;;25.61;34.71
79686;BME280;69153;47.918;11.428;2023-04-23T11:27:40;94439.78;;;22.83;35.91
79686;BME280;69153;47.918;11.428;2023-04-23T11:30:18;94446.72;;;23.10;39.04
79686;BME280;69153;47.918;11.428;2023-04-23T11:32:46;94442.66;;;24.48;36.78
79686;BME280;69153;47.918;11.428;2023-04-23T11:35:17;94440.22;;;25.13;34.40
79686;BME280;69153;47.918;11.428;2023-04-23T11:37:44;94446.03;;;25.66;34.30
79686;BME280;69153;47.918;11.428;2023-04-23T11:40:11;94443.06;;;23.52;36.72
79686;BME280;69153;47.918;11.428;2023-04-23T11:42:52;94439.38;;;22.41;37.70
79686;BME280;69153;47.918;11.428;2023-04-23T11:45:25;94427.31;;;22.79;39.29
79686;BME280;69153;47.918;11.428;2023-04-23T11:47:53;94424.19;;;23.21;37.36
79686;BME280;69153;47.918;11.428;2023-04-23T11:50:29;94422.47;;;23.63;35.79
79686;BME280;69153;47.918;11.428;2023-04-23T11:53:03;94407.47;;;23.88;36.32
79686;BME280;69153;47.918;11.428;2023-04-23T11:55:28;94412.72;;;24.20;36.25
79686;BME280;69153;47.918;11.428;2023-04-23T11:57:56;94404.13;;;23.82;36.01
79686;BME280;69153;47.918;11.428;2023-04-23T12:00:24;94406.63;;;22.31;37.97
79686;BME280;69153;47.918;11.428;2023-04-23T12:05:20;94395.06;;;21.74;39.12
79686;BME280;69153;47.918;11.428;2023-04-23T12:07:50;94395.53;;;21.30;40.05
79686;BME280;69153;47.918;11.428;2023-04-23T12:10:22;94392.53;;;20.85;41.06
79686;BME280;69153;47.918;11.428;2023-04-23T12:12:52;94395.25;;;21.09;41.00
79686;BME280;69153;47.918;11.428;2023-04-23T12:15:19;94388.16;;;21.36;40.55
79686;BME280;69153;47.918;11.428;2023-04-23T12:18:07;94379.91;;;21.71;39.97
79686;BME280;69153;47.918;11.428;2023-04-23T12:20:32;94378.34;;;21.09;40.68
79686;BME280;69153;47.918;11.428;2023-04-23T12:23:03;94381.97;;;20.87;41.60
79686;BME280;69153;47.918;11.428;2023-04-23T12:25:29;94369.31;;;20.05;42.88
79686;BME280;69153;47.918;11.428;2023-04-23T12:27:58;94381.31;;;20.04;43.00
79686;BME280;69153;47.918;11.428;2023-04-23T12:30:30;94374.41;;;19.62;44.25
79686;BME280;69153;47.918;11.428;2023-04-23T12:33:02;94374.09;;;19.82;43.08
79686;BME280;69153;47.918;11.428;2023-04-23T12:40:46;94368.53;;;19.63;42.49
79686;BME280;69153;47.918;11.428;2023-04-23T12:43:12;94357.63;;;19.39;43.03
79686;BME280;69153;47.918;11.428;2023-04-23T12:45:37;94361.38;;;19.03;43.83
79686;BME280;69153;47.918;11.428;2023-04-23T12:48:03;94356.47;;;19.18;44.36
79686;BME280;69153;47.918;11.428;2023-04-23T12:50:29;94352.88;;;18.71;44.96
79686;BME280;69153;47.918;11.428;2023-04-23T12:52:54;94352.28;;;19.22;44.34
79686;BME280;69153;47.918;11.428;2023-04-23T12:55:20;94343.19;;;19.59;43.14
79686;BME280;69153;47.918;11.428;2023-04-23T12:57:45;94346.59;;;19.48;43.30
79686;BME280;69153;47.918;11.428;2023-04-23T13:00:11;94344.09;;;19.67;42.56